Time;durP1;ratioP1;P1;durP2;ratioP2;P2;SDS_P1;SDS_P2;PMS_P1;PMS_P2;Temp;Humidity;BMP_temperature;BMP_pressure;BME280_temperature;BME280_humidity;BME280_pressure;Samples;Min_cycle;Max_cycle;Signal;HPM_P1;HPM_P2
2020/12/05 00:01:59;;;;;;;9.02;5.90;;;;;;;;;;5062225;28;20123;-75
2020/12/05 00:04:25;;;;;;;13.40;6.88;;;;;;;;;;5058057;28;20536;-75
2020/12/05 00:06:52;;;;;;;13.43;7.43;;;;;;;;;;5058143;28;20048;-74
2020/12/05 00:09:18;;;;;;;11.02;6.90;;;;;;;;;;5058726;28;20053;-75
2020/12/05 00:11:44;;;;;;;8.93;5.97;;;;;;;;;;5053256;28;20048;-75
2020/12/05 00:14:10;;;;;;;8.98;6.10;;;;;;;;;;5061074;28;20052;-74
2020/12/05 00:16:36;;;;;;;10.27;6.50;;;;;;;;;;5053124;28;20079;-74
2020/12/05 00:19:02;;;;;;;9.85;6.35;;;;;;;;;;5056393;28;20045;-75
2020/12/05 00:21:28;;;;;;;8.73;5.78;;;;;;;;;;5057277;28;20047;-74
2020/12/05 00:23:54;;;;;;;8.93;6.03;;;;;;;;;;5061956;28;20041;-74
2020/12/05 00:26:21;;;;;;;12.35;7.03;;;;;;;;;;5057965;28;20052;-75
2020/12/05 00:28:48;;;;;;;9.98;6.57;;;;;;;;;;5058465;28;20048;-74
2020/12/05 00:31:18;;;;;;;10.15;6.65;;;;;;;;;;5062736;28;20057;-75
2020/12/05 00:33:44;;;;;;;;;;;;;;;;;;5058802;28;20045;-74
2020/12/05 00:36:10;;;;;;;7.85;5.28;;;;;;;;;;5059894;28;19920;-74
2020/12/05 00:38:37;;;;;;;8.88;5.80;;;;;;;;;;5056641;28;20150;-74
2020/12/05 00:41:04;;;;;;;7.82;5.72;;;;;;;;;;5055471;28;20068;-75
2020/12/05 00:43:33;;;;;;;9.63;6.57;;;;;;;;;;5059515;28;20519;-74
2020/12/05 00:46:02;;;;;;;8.98;6.20;;;;;;;;;;5059925;28;20105;-75
2020/12/05 00:48:28;;;;;;;7.03;5.25;;;;;;;;;;5064479;28;20529;-71
2020/12/05 00:50:54;;;;;;;8.93;6.50;;;;;;;;;;5052527;28;20041;-75
2020/12/05 00:53:20;;;;;;;7.82;5.93;;;;;;;;;;5062658;28;20056;-73
2020/12/05 00:55:46;;;;;;;8.85;5.80;;;;;;;;;;5055104;28;20045;-74
2020/12/05 00:58:13;;;;;;;8.93;5.35;;;;;;;;;;5059169;28;20044;-74
2020/12/05 01:00:39;;;;;;;8.55;5.68;;;;;;;;;;5061233;28;20041;-74
2020/12/05 01:03:06;;;;;;;8.13;5.80;;;;;;;;;;5054526;28;20422;-75
2020/12/05 01:05:32;;;;;;;9.93;6.28;;;;;;;;;;5059299;28;20044;-74
2020/12/05 01:08:00;;;;;;;6.68;4.85;;;;;;;;;;5055909;28;20055;-74
2020/12/05 01:10:26;;;;;;;8.63;5.53;;;;;;;;;;5059665;28;20067;-74
2020/12/05 01:12:53;;;;;;;25.38;7.28;;;;;;;;;;5054228;28;20052;-76
2020/12/05 01:15:19;;;;;;;8.30;5.47;;;;;;;;;;5061535;28;20051;-75
2020/12/05 01:17:45;;;;;;;14.18;4.90;;;;;;;;;;5059571;28;20041;-74
2020/12/05 01:20:11;;;;;;;7.55;5.25;;;;;;;;;;5060855;28;20477;-74
2020/12/05 01:22:37;;;;;;;8.07;4.85;;;;;;;;;;5055811;28;20053;-73
2020/12/05 01:25:04;;;;;;;8.02;4.80;;;;;;;;;;5057275;28;20402;-73
2020/12/05 01:27:30;;;;;;;6.30;4.05;;;;;;;;;;5061094;28;20423;-73
2020/12/05 01:29:56;;;;;;;7.65;4.20;;;;;;;;;;5060098;28;20045;-74
2020/12/05 01:32:22;;;;;;;6.60;4.35;;;;;;;;;;5063037;28;20064;-73
2020/12/05 01:34:48;;;;;;;6.38;4.30;;;;;;;;;;5063335;28;20072;-74
2020/12/05 01:37:16;;;;;;;9.68;5.30;;;;;;;;;;5063683;28;20060;-74
2020/12/05 01:39:42;;;;;;;10.23;4.20;;;;;;;;;;5057507;28;20090;-73
2020/12/05 01:42:08;;;;;;;8.55;4.75;;;;;;;;;;5058748;28;20056;-73
2020/12/05 01:44:34;;;;;;;6.22;4.22;;;;;;;;;;5054322;28;20045;-73
2020/12/05 01:47:01;;;;;;;6.15;4.00;;;;;;;;;;5057053;28;20102;-72
2020/12/05 01:49:27;;;;;;;5.43;3.83;;;;;;;;;;5057230;28;20041;-73
2020/12/05 01:51:55;;;;;;;5.45;3.90;;;;;;;;;;5058407;28;20056;-73
2020/12/05 01:54:21;;;;;;;6.47;3.97;;;;;;;;;;5057073;28;20044;-72
2020/12/05 01:56:54;;;;;;;10.32;4.30;;;;;;;;;;5054642;28;20044;-72
2020/12/05 01:59:20;;;;;;;7.07;4.45;;;;;;;;;;5055888;28;20059;-72
2020/12/05 02:01:46;;;;;;;6.13;3.92;;;;;;;;;;5052962;28;20049;-72
2020/12/05 02:04:12;;;;;;;6.20;3.75;;;;;;;;;;5059489;28;20060;-73
2020/12/05 02:06:57;;;;;;;7.40;3.45;;;;;;;;;;5061395;28;20052;-73
2020/12/05 02:09:36;;;;;;;6.82;3.38;;;;;;;;;;5059880;28;20041;-75
2020/12/05 02:12:03;;;;;;;6.47;4.25;;;;;;;;;;5058763;28;20048;-72
2020/12/05 02:14:30;;;;;;;7.30;4.00;;;;;;;;;;5057862;28;20040;-73
2020/12/05 02:17:04;;;;;;;5.65;3.65;;;;;;;;;;5061490;28;20052;-73
2020/12/05 02:19:36;;;;;;;5.65;4.10;;;;;;;;;;5060700;28;20151;-74
2020/12/05 02:22:03;;;;;;;8.05;3.50;;;;;;;;;;5061192;28;20147;-73
2020/12/05 02:24:29;;;;;;;6.03;3.58;;;;;;;;;;5061315;28;20067;-73
2020/12/05 02:26:56;;;;;;;7.88;3.67;;;;;;;;;;5056021;28;20044;-73
2020/12/05 02:29:22;;;;;;;5.05;3.25;;;;;;;;;;5056016;28;20044;-72
2020/12/05 02:31:48;;;;;;;5.22;3.10;;;;;;;;;;5062570;28;20041;-73
2020/12/05 02:34:14;;;;;;;5.28;2.63;;;;;;;;;;5054702;28;20041;-75
2020/12/05 02:36:41;;;;;;;5.70;3.67;;;;;;;;;;5053407;28;20059;-73
2020/12/05 02:39:09;;;;;;;6.70;3.47;;;;;;;;;;5057093;28;20049;-74
2020/12/05 02:41:39;;;;;;;5.55;3.42;;;;;;;;;;5060119;28;20045;-74
2020/12/05 02:44:05;;;;;;;4.53;2.92;;;;;;;;;;5056719;28;20482;-75
2020/12/05 02:46:32;;;;;;;5.45;3.53;;;;;;;;;;5060284;28;20044;-73
2020/12/05 02:48:58;;;;;;;5.47;3.50;;;;;;;;;;5061886;28;20041;-75
2020/12/05 02:51:24;;;;;;;5.38;3.00;;;;;;;;;;5061675;28;20047;-76
2020/12/05 02:53:50;;;;;;;5.20;3.10;;;;;;;;;;5056106;28;20068;-75
2020/12/05 02:56:17;;;;;;;5.13;3.10;;;;;;;;;;5062558;28;20048;-75
2020/12/05 02:58:46;;;;;;;5.50;3.53;;;;;;;;;;5058428;28;20408;-75
2020/12/05 03:01:12;;;;;;;4.38;3.33;;;;;;;;;;5060640;28;20055;-76
2020/12/05 03:03:39;;;;;;;4.88;2.90;;;;;;;;;;5056916;28;20048;-75
2020/12/05 03:06:05;;;;;;;5.60;3.33;;;;;;;;;;5059968;28;20694;-75
2020/12/05 03:08:32;;;;;;;5.53;2.80;;;;;;;;;;5060048;28;20127;-74
2020/12/05 03:10:58;;;;;;;4.18;2.47;;;;;;;;;;5055661;28;20052;-73
2020/12/05 03:13:25;;;;;;;4.38;2.67;;;;;;;;;;5059358;28;20044;-73
2020/12/05 03:15:51;;;;;;;4.28;2.70;;;;;;;;;;5057231;28;20052;-74
2020/12/05 03:18:18;;;;;;;3.58;2.42;;;;;;;;;;5058802;28;20056;-74
2020/12/05 03:20:44;;;;;;;3.92;2.80;;;;;;;;;;5062343;28;20056;-74
2020/12/05 03:23:10;;;;;;;3.97;3.10;;;;;;;;;;5051957;28;20059;-74
2020/12/05 03:25:37;;;;;;;4.57;2.83;;;;;;;;;;5056959;28;20124;-73
2020/12/05 03:28:03;;;;;;;5.07;2.90;;;;;;;;;;5053367;28;20049;-74
2020/12/05 03:30:29;;;;;;;5.10;2.75;;;;;;;;;;5055945;28;20063;-71
2020/12/05 03:32:56;;;;;;;5.00;3.28;;;;;;;;;;5066849;23;20052;-89
2020/12/05 03:35:25;;;;;;;5.15;2.50;;;;;;;;;;5053418;28;20064;-89
2020/12/05 03:37:52;;;;;;;;;;;;;;;;;;5060647;28;20144;-87
2020/12/05 03:40:18;;;;;;;4.45;2.60;;;;;;;;;;5054180;28;19920;-87
2020/12/05 03:42:45;;;;;;;4.20;2.80;;;;;;;;;;5054115;28;20056;-84
2020/12/05 03:45:11;;;;;;;3.60;2.30;;;;;;;;;;5052970;28;20457;-86
2020/12/05 03:47:37;;;;;;;4.78;3.30;;;;;;;;;;5059835;28;20493;-87
2020/12/05 03:50:06;;;;;;;4.10;2.60;;;;;;;;;;5060480;28;20045;-87
2020/12/05 03:52:33;;;;;;;6.25;3.00;;;;;;;;;;5055535;28;20049;-88
2020/12/05 03:54:59;;;;;;;4.00;3.08;;;;;;;;;;5064397;28;20048;-88
2020/12/05 03:57:25;;;;;;;3.97;2.88;;;;;;;;;;5056869;28;20053;-88
2020/12/05 03:59:52;;;;;;;4.63;3.15;;;;;;;;;;5056970;28;20044;-86
2020/12/05 04:02:18;;;;;;;4.35;2.60;;;;;;;;;;5054934;28;20045;-86
2020/12/05 04:04:44;;;;;;;5.00;3.20;;;;;;;;;;5055995;28;20055;-86
2020/12/05 04:07:10;;;;;;;3.35;2.80;;;;;;;;;;5056595;28;20053;-86
2020/12/05 04:09:36;;;;;;;4.43;2.72;;;;;;;;;;5052575;28;20479;-86
2020/12/05 04:12:03;;;;;;;4.47;2.60;;;;;;;;;;5058112;28;20052;-86
2020/12/05 04:14:29;;;;;;;5.72;2.90;;;;;;;;;;5060958;28;20089;-86
2020/12/05 04:16:56;;;;;;;5.03;2.90;;;;;;;;;;5055097;28;20051;-87
2020/12/05 04:19:22;;;;;;;4.05;2.55;;;;;;;;;;5052226;28;20461;-87
2020/12/05 04:21:49;;;;;;;4.63;2.67;;;;;;;;;;5056827;28;20040;-86
2020/12/05 04:24:16;;;;;;;5.63;3.10;;;;;;;;;;5056147;28;20053;-86
2020/12/05 04:26:42;;;;;;;4.10;2.42;;;;;;;;;;5059824;28;20055;-86
2020/12/05 04:29:08;;;;;;;4.60;2.83;;;;;;;;;;5060241;28;20045;-87
2020/12/05 04:31:34;;;;;;;4.53;2.70;;;;;;;;;;5059137;28;20044;-88
2020/12/05 04:34:00;;;;;;;3.80;2.17;;;;;;;;;;5055787;28;20041;-90
2020/12/05 04:36:26;;;;;;;3.50;2.78;;;;;;;;;;5063373;28;20051;-89
2020/12/05 04:38:53;;;;;;;3.15;2.22;;;;;;;;;;5061295;28;20033;-89
2020/12/05 04:41:19;;;;;;;4.28;2.40;;;;;;;;;;5059551;28;20055;-89
2020/12/05 04:43:45;;;;;;;3.72;2.30;;;;;;;;;;5058052;28;20056;-88
2020/12/05 04:46:12;;;;;;;4.22;2.58;;;;;;;;;;5058102;28;20407;-87
2020/12/05 04:48:38;;;;;;;5.35;2.35;;;;;;;;;;5060669;28;20045;-86
2020/12/05 04:51:04;;;;;;;3.90;2.58;;;;;;;;;;5058253;28;20428;-86
2020/12/05 04:53:31;;;;;;;3.42;2.08;;;;;;;;;;5061837;28;20056;-87
2020/12/05 04:55:58;;;;;;;4.30;2.17;;;;;;;;;;5058607;28;20133;-86
2020/12/05 04:58:25;;;;;;;3.22;2.00;;;;;;;;;;5058087;28;20045;-87
2020/12/05 05:00:53;;;;;;;3.85;2.50;;;;;;;;;;5057952;28;20045;-87
2020/12/05 05:03:23;;;;;;;3.50;2.10;;;;;;;;;;5055832;28;20063;-87
2020/12/05 05:05:49;;;;;;;;;;;;;;;;;;5061341;28;20114;-87
2020/12/05 05:08:15;;;;;;;3.65;2.20;;;;;;;;;;5055167;28;19929;-86
2020/12/05 05:10:42;;;;;;;3.80;2.20;;;;;;;;;;5060055;28;20048;-84
2020/12/05 05:13:15;;;;;;;3.35;2.20;;;;;;;;;;5056358;28;20486;-85
2020/12/05 05:15:42;;;;;;;3.13;1.92;;;;;;;;;;5059071;28;20048;-85
2020/12/05 05:18:09;;;;;;;4.70;2.40;;;;;;;;;;5059142;28;20056;-86
2020/12/05 05:20:42;;;;;;;3.70;2.10;;;;;;;;;;5055861;28;20044;-86
2020/12/05 05:23:09;;;;;;;4.10;2.70;;;;;;;;;;5059212;28;20056;-86
2020/12/05 05:25:59;;;;;;;2.85;2.13;;;;;;;;;;5062779;28;20048;-85
2020/12/05 05:28:32;;;;;;;3.05;2.40;;;;;;;;;;5050958;28;20056;-84
2020/12/05 05:33:48;;;;;;;3.87;2.70;;;;;;;;;;5058876;28;20060;-87
2020/12/05 05:36:16;;;;;;;2.95;2.03;;;;;;;;;;5061887;28;20045;-89
2020/12/05 05:38:43;;;;;;;3.42;2.08;;;;;;;;;;5061407;28;20449;-82
2020/12/05 05:41:16;;;;;;;3.40;2.15;;;;;;;;;;5057963;28;20041;-81
2020/12/05 05:43:55;;;;;;;3.63;1.75;;;;;;;;;;5052131;28;20442;-81
2020/12/05 05:46:31;;;;;;;3.03;2.13;;;;;;;;;;5061221;28;20044;-85
2020/12/05 05:48:58;;;;;;;7.30;2.25;;;;;;;;;;5058349;28;20059;-85
2020/12/05 05:51:35;;;;;;;3.05;1.88;;;;;;;;;;5057873;28;20052;-82
2020/12/05 05:54:11;;;;;;;3.05;1.98;;;;;;;;;;5055544;28;20053;-81
2020/12/05 05:56:37;;;;;;;2.55;1.75;;;;;;;;;;5052662;28;20056;-83
2020/12/05 05:59:04;;;;;;;3.05;2.03;;;;;;;;;;5057821;28;20052;-86
2020/12/05 06:01:32;;;;;;;3.53;2.10;;;;;;;;;;5065568;28;20047;-85
2020/12/05 06:04:01;;;;;;;2.83;1.50;;;;;;;;;;5058012;28;20471;-86
2020/12/05 06:06:28;;;;;;;2.97;1.98;;;;;;;;;;5061685;28;20237;-86
2020/12/05 06:08:56;;;;;;;2.90;1.55;;;;;;;;;;5062725;28;20044;-88
2020/12/05 06:11:23;;;;;;;2.97;1.65;;;;;;;;;;5056589;28;20044;-89
2020/12/05 06:13:50;;;;;;;2.35;1.67;;;;;;;;;;5054716;28;20418;-89
2020/12/05 06:16:17;;;;;;;2.58;1.70;;;;;;;;;;5056030;28;20079;-90
2020/12/05 06:18:44;;;;;;;3.30;1.70;;;;;;;;;;5054642;28;20048;-89
2020/12/05 06:21:11;;;;;;;2.90;1.80;;;;;;;;;;5063449;28;20052;-90
2020/12/05 06:23:37;;;;;;;3.05;1.73;;;;;;;;;;5054078;28;20067;-89
2020/12/05 06:26:04;;;;;;;3.47;1.65;;;;;;;;;;5051806;28;20483;-90
2020/12/05 06:28:30;;;;;;;2.55;1.52;;;;;;;;;;5054990;28;20052;-90
2020/12/05 06:30:56;;;;;;;2.20;1.55;;;;;;;;;;5058364;28;20061;-90
2020/12/05 06:33:41;;;;;;;2.50;1.45;;;;;;;;;;5058189;28;20083;-91
2020/12/05 06:36:26;;;;;;;2.17;1.42;;;;;;;;;;5061172;28;20060;-89
2020/12/05 06:39:09;;;;;;;1.95;1.42;;;;;;;;;;5059110;28;20076;-90
2020/12/05 06:41:55;;;;;;;2.50;1.50;;;;;;;;;;5062350;28;20494;-91
2020/12/05 06:44:34;;;;;;;2.35;1.35;;;;;;;;;;5054368;28;20052;-90
2020/12/05 06:47:04;;;;;;;3.90;2.13;;;;;;;;;;5056793;28;20413;-90
2020/12/05 06:49:39;;;;;;;3.13;1.40;;;;;;;;;;5055697;28;20049;-88
2020/12/05 06:52:24;;;;;;;2.42;1.50;;;;;;;;;;5059362;28;20052;-88
2020/12/05 06:54:51;;;;;;;4.00;1.60;;;;;;;;;;5051825;28;20391;-85
2020/12/05 06:57:17;;;;;;;2.90;1.70;;;;;;;;;;5056369;28;20572;-87
2020/12/05 06:59:43;;;;;;;2.15;1.38;;;;;;;;;;5060805;28;20067;-84
2020/12/05 07:02:28;;;;;;;2.35;1.50;;;;;;;;;;5055235;28;20483;-88
2020/12/05 07:05:13;;;;;;;3.10;1.50;;;;;;;;;;5056545;28;20072;-87
2020/12/05 07:07:39;;;;;;;1.65;1.30;;;;;;;;;;5059361;28;20067;-83
2020/12/05 07:10:05;;;;;;;2.08;1.17;;;;;;;;;;5054889;28;20045;-81
2020/12/05 07:12:35;;;;;;;5.22;2.45;;;;;;;;;;5054959;28;20077;-83
2020/12/05 07:15:19;;;;;;;1.13;0.98;;;;;;;;;;5059824;28;20064;-83
2020/12/05 07:17:46;;;;;;;3.03;1.20;;;;;;;;;;5060051;28;20045;-84
2020/12/05 07:20:12;;;;;;;1.85;1.17;;;;;;;;;;5063380;28;20052;-88
2020/12/05 07:22:39;;;;;;;1.83;1.27;;;;;;;;;;5060440;28;20524;-89
2020/12/05 07:25:05;;;;;;;1.48;1.15;;;;;;;;;;5053001;28;20449;-84
2020/12/05 07:27:31;;;;;;;1.40;1.00;;;;;;;;;;5059029;28;20537;-87
2020/12/05 07:29:57;;;;;;;2.85;1.40;;;;;;;;;;5055769;28;20040;-80
2020/12/05 07:32:30;;;;;;;1.70;1.10;;;;;;;;;;5061490;28;20049;-83
2020/12/05 07:34:57;;;;;;;2.78;1.20;;;;;;;;;;5051077;28;20067;-85
2020/12/05 07:37:25;;;;;;;2.85;1.42;;;;;;;;;;5058252;28;20402;-82
2020/12/05 07:39:52;;;;;;;1.98;1.10;;;;;;;;;;5050174;28;20049;-82
2020/12/05 07:42:18;;;;;;;1.38;0.98;;;;;;;;;;5061846;28;20131;-85
2020/12/05 07:44:44;;;;;;;2.22;1.30;;;;;;;;;;5057579;28;20647;-85
2020/12/05 07:47:21;;;;;;;1.58;1.15;;;;;;;;;;5062345;28;20143;-85
2020/12/05 07:49:50;;;;;;;2.20;1.30;;;;;;;;;;5058459;28;20425;-86
2020/12/05 07:52:39;;;;;;;3.67;1.50;;;;;;;;;;5054054;28;20136;-80
2020/12/05 07:55:05;;;;;;;;;;;;;;;;;;5052309;28;20041;-86
2020/12/05 07:57:35;;;;;;;2.67;1.70;;;;;;;;;;5063061;28;19936;-86
2020/12/05 08:00:01;;;;;;;2.20;1.60;;;;;;;;;;5062176;28;20055;-90
2020/12/05 08:02:50;;;;;;;2.83;1.58;;;;;;;;;;5068455;28;20044;-88
2020/12/05 08:05:22;;;;;;;2.88;1.80;;;;;;;;;;5029860;28;20049;-82
2020/12/05 08:07:56;;;;;;;2.22;1.50;;;;;;;;;;5064004;28;20040;-84
2020/12/05 08:10:23;;;;;;;2.90;1.85;;;;;;;;;;5058648;28;20049;-83
2020/12/05 08:13:04;;;;;;;3.25;1.88;;;;;;;;;;5058493;28;20513;-78
2020/12/05 08:15:32;;;;;;;10.38;2.28;;;;;;;;;;5067901;28;20080;-81
2020/12/05 08:18:03;;;;;;;4.65;1.70;;;;;;;;;;5057950;28;20045;-86
2020/12/05 08:20:31;;;;;;;4.85;1.55;;;;;;;;;;5059914;28;20053;-86
2020/12/05 08:23:01;;;;;;;5.55;2.00;;;;;;;;;;5062301;28;20051;-87
2020/12/05 08:25:27;;;;;;;4.38;1.90;;;;;;;;;;5059931;28;20509;-87
2020/12/05 08:27:54;;;;;;;8.48;2.10;;;;;;;;;;5053641;28;20055;-86
2020/12/05 08:30:20;;;;;;;4.70;1.83;;;;;;;;;;5058780;28;20053;-87
2020/12/05 08:32:47;;;;;;;5.72;1.50;;;;;;;;;;5061602;28;20053;-87
2020/12/05 08:35:15;;;;;;;2.28;1.73;;;;;;;;;;5060639;28;20063;-86
2020/12/05 08:37:41;;;;;;;7.55;2.20;;;;;;;;;;5061219;28;20498;-86
2020/12/05 08:40:08;;;;;;;5.18;2.13;;;;;;;;;;5063047;28;20053;-85
2020/12/05 08:42:34;;;;;;;4.18;1.63;;;;;;;;;;5062380;28;20052;-86
2020/12/05 08:45:00;;;;;;;3.58;1.65;;;;;;;;;;5065147;28;20048;-86
2020/12/05 08:47:29;;;;;;;3.88;2.05;;;;;;;;;;5056121;28;20052;-87
2020/12/05 08:49:55;;;;;;;3.60;1.73;;;;;;;;;;5057875;28;20048;-85
2020/12/05 08:52:24;;;;;;;4.03;1.90;;;;;;;;;;5054490;28;20055;-85
2020/12/05 08:54:51;;;;;;;3.33;1.67;;;;;;;;;;5056252;28;20049;-85
2020/12/05 08:57:17;;;;;;;2.60;1.55;;;;;;;;;;5058188;28;20041;-86
2020/12/05 08:59:44;;;;;;;3.95;1.85;;;;;;;;;;5057567;28;20124;-86
2020/12/05 09:02:11;;;;;;;2.60;1.50;;;;;;;;;;5061194;28;20049;-86
2020/12/05 09:04:37;;;;;;;2.72;1.58;;;;;;;;;;5059754;28;20047;-85
2020/12/05 09:07:14;;;;;;;2.67;1.80;;;;;;;;;;5062342;28;20044;-87
2020/12/05 09:09:41;;;;;;;3.22;1.30;;;;;;;;;;5054362;28;20406;-83
2020/12/05 09:12:08;;;;;;;2.95;1.50;;;;;;;;;;5063048;28;20056;-82
2020/12/05 09:14:35;;;;;;;27.73;4.55;;;;;;;;;;5061658;28;20461;-80
2020/12/05 09:17:02;;;;;;;6.75;2.03;;;;;;;;;;5057450;28;20520;-78
2020/12/05 09:19:30;;;;;;;9.57;1.67;;;;;;;;;;5070122;28;20048;-80
2020/12/05 09:21:57;;;;;;;6.18;2.20;;;;;;;;;;5060514;28;20046;-76
2020/12/05 09:24:23;;;;;;;11.20;2.30;;;;;;;;;;5061671;28;20047;-75
2020/12/05 09:26:51;;;;;;;11.05;2.30;;;;;;;;;;5073343;28;20048;-77
2020/12/05 09:29:20;;;;;;;5.97;1.92;;;;;;;;;;5056852;28;20133;-78
2020/12/05 09:31:51;;;;;;;15.00;2.83;;;;;;;;;;5058197;28;20071;-77
2020/12/05 09:34:17;;;;;;;;;;;;;;;;;;5063020;28;20144;-78
2020/12/05 09:36:43;;;;;;;7.53;2.00;;;;;;;;;;5057975;28;20375;-77
2020/12/05 09:39:11;;;;;;;4.47;1.88;;;;;;;;;;5054808;28;20550;-79
2020/12/05 09:41:38;;;;;;;4.55;2.22;;;;;;;;;;5061806;28;20045;-79
2020/12/05 09:44:04;;;;;;;12.35;2.33;;;;;;;;;;5059687;28;20431;-88
2020/12/05 09:46:30;;;;;;;11.80;3.05;;;;;;;;;;5059344;28;20054;-77
2020/12/05 09:48:56;;;;;;;5.80;2.83;;;;;;;;;;5057653;28;20060;-82
2020/12/05 09:51:22;;;;;;;6.45;2.17;;;;;;;;;;5063354;28;20049;-81
2020/12/05 09:53:48;;;;;;;3.58;2.25;;;;;;;;;;5058179;28;20045;-80
2020/12/05 09:56:14;;;;;;;4.05;2.28;;;;;;;;;;5056383;28;20123;-80
2020/12/05 09:58:40;;;;;;;6.43;2.22;;;;;;;;;;5057579;28;20059;-81
2020/12/05 10:01:06;;;;;;;7.57;2.40;;;;;;;;;;5061205;28;20048;-77
2020/12/05 10:03:33;;;;;;;5.15;1.98;;;;;;;;;;5061219;28;20070;-89
2020/12/05 10:06:00;;;;;;;5.45;2.80;;;;;;;;;;5057617;28;20037;-80
2020/12/05 10:08:27;;;;;;;6.93;2.58;;;;;;;;;;5052486;28;20044;-79
2020/12/05 10:10:53;;;;;;;9.93;2.85;;;;;;;;;;5058708;28;20044;-87
2020/12/05 10:13:19;;;;;;;9.75;3.03;;;;;;;;;;5054706;28;20045;-88
2020/12/05 10:15:45;;;;;;;5.70;2.47;;;;;;;;;;5057453;28;20426;-88
2020/12/05 10:18:11;;;;;;;8.32;3.30;;;;;;;;;;5059706;28;20049;-88
2020/12/05 10:20:38;;;;;;;5.38;2.70;;;;;;;;;;5055190;28;20036;-87
2020/12/05 10:23:04;;;;;;;8.98;4.30;;;;;;;;;;5056025;28;20058;-88
2020/12/05 10:25:32;;;;;;;7.65;2.83;;;;;;;;;;5054084;28;20127;-90
2020/12/05 10:27:58;;;;;;;11.85;2.97;;;;;;;;;;5062393;28;20055;-89
2020/12/05 10:30:24;;;;;;;6.63;2.70;;;;;;;;;;5061032;28;20041;-86
2020/12/05 10:32:51;;;;;;;8.85;3.33;;;;;;;;;;5053824;28;20057;-82
2020/12/05 10:35:23;;;;;;;10.13;2.78;;;;;;;;;;5053303;28;20044;-85
2020/12/05 10:37:49;;;;;;;7.88;2.78;;;;;;;;;;5060987;28;20049;-85
2020/12/05 10:40:15;;;;;;;7.35;2.55;;;;;;;;;;5053695;28;20049;-81
2020/12/05 10:42:41;;;;;;;7.03;2.95;;;;;;;;;;5058603;28;20044;-79
2020/12/05 10:45:11;;;;;;;12.80;3.08;;;;;;;;;;5061923;28;20056;-81
2020/12/05 10:47:37;;;;;;;4.65;2.83;;;;;;;;;;5053723;28;20131;-82
2020/12/05 10:50:03;;;;;;;8.88;2.42;;;;;;;;;;5053623;28;20376;-82
2020/12/05 10:52:29;;;;;;;7.88;2.55;;;;;;;;;;5053325;28;20114;-82
2020/12/05 10:54:55;;;;;;;5.63;2.38;;;;;;;;;;5054593;28;20059;-82
2020/12/05 10:57:22;;;;;;;8.70;2.92;;;;;;;;;;5060975;28;20056;-81
2020/12/05 10:59:49;;;;;;;5.93;3.00;;;;;;;;;;5056392;28;20550;-82
2020/12/05 11:02:15;;;;;;;7.32;2.22;;;;;;;;;;5053584;28;20099;-79
2020/12/05 11:04:41;;;;;;;10.10;2.40;;;;;;;;;;5054450;28;20052;-82
2020/12/05 11:07:07;;;;;;;5.97;2.50;;;;;;;;;;5059797;28;20418;-81
2020/12/05 11:09:33;;;;;;;9.50;3.72;;;;;;;;;;5058440;28;20059;-80
2020/12/05 11:11:59;;;;;;;7.18;2.63;;;;;;;;;;5057998;28;20056;-81
2020/12/05 11:14:26;;;;;;;6.25;2.35;;;;;;;;;;5057175;28;20801;-80
2020/12/05 11:16:52;;;;;;;7.15;2.40;;;;;;;;;;5055694;28;20053;-80
2020/12/05 11:19:18;;;;;;;6.72;2.08;;;;;;;;;;5058233;28;20059;-80
2020/12/05 11:21:45;;;;;;;8.35;2.55;;;;;;;;;;5059432;28;20494;-84
2020/12/05 11:24:11;;;;;;;8.32;2.80;;;;;;;;;;5060729;28;20499;-80
2020/12/05 11:26:37;;;;;;;5.68;2.55;;;;;;;;;;5055651;28;20059;-80
2020/12/05 11:29:04;;;;;;;6.97;2.90;;;;;;;;;;5056133;28;20045;-80
2020/12/05 11:31:31;;;;;;;7.90;3.33;;;;;;;;;;5055303;28;20151;-80
2020/12/05 11:33:57;;;;;;;8.55;2.25;;;;;;;;;;5055548;28;20045;-80
2020/12/05 11:36:23;;;;;;;6.28;2.47;;;;;;;;;;5062300;28;20482;-80
2020/12/05 11:38:58;;;;;;;6.30;2.10;;;;;;;;;;5061889;28;20045;-80
2020/12/05 11:41:24;;;;;;;4.55;2.05;;;;;;;;;;5059004;28;20403;-80
2020/12/05 11:43:50;;;;;;;3.45;1.85;;;;;;;;;;5056447;28;20144;-80
2020/12/05 11:46:16;;;;;;;7.22;2.65;;;;;;;;;;5060087;28;20055;-80
2020/12/05 11:48:43;;;;;;;3.70;1.92;;;;;;;;;;5058502;28;20056;-80
2020/12/05 11:51:09;;;;;;;4.15;1.70;;;;;;;;;;5062183;28;20048;-81
2020/12/05 11:53:35;;;;;;;5.22;2.40;;;;;;;;;;5064760;28;20057;-80
2020/12/05 11:56:01;;;;;;;6.22;2.45;;;;;;;;;;5063212;28;20047;-79
2020/12/05 11:58:27;;;;;;;6.55;1.95;;;;;;;;;;5065618;28;20052;-80
2020/12/05 12:00:54;;;;;;;5.30;2.33;;;;;;;;;;5062803;28;20044;-80
2020/12/05 12:03:20;;;;;;;3.78;1.92;;;;;;;;;;5060850;28;20044;-79
2020/12/05 12:05:47;;;;;;;3.78;2.10;;;;;;;;;;5060136;28;20084;-78
2020/12/05 12:08:13;;;;;;;3.95;2.00;;;;;;;;;;5060410;28;20048;-87
2020/12/05 12:10:39;;;;;;;3.83;2.08;;;;;;;;;;5061343;28;20217;-80
2020/12/05 12:13:05;;;;;;;4.50;1.73;;;;;;;;;;5062387;28;20053;-80
2020/12/05 12:15:31;;;;;;;3.13;2.13;;;;;;;;;;5052657;28;20049;-79
2020/12/05 12:17:58;;;;;;;3.53;1.50;;;;;;;;;;5055030;28;20163;-79
2020/12/05 12:20:24;;;;;;;5.55;1.58;;;;;;;;;;5057405;28;20048;-78
2020/12/05 12:22:50;;;;;;;2.80;1.73;;;;;;;;;;5061079;28;20048;-80
2020/12/05 12:25:18;;;;;;;4.07;2.05;;;;;;;;;;5061584;28;20052;-80
2020/12/05 12:27:44;;;;;;;2.65;1.52;;;;;;;;;;5060715;28;20041;-80
2020/12/05 12:30:10;;;;;;;4.15;2.10;;;;;;;;;;5061503;28;20047;-79
2020/12/05 12:32:36;;;;;;;5.30;2.47;;;;;;;;;;5065141;28;20057;-78
2020/12/05 12:35:03;;;;;;;4.57;1.80;;;;;;;;;;5058723;28;20051;-78
2020/12/05 12:37:29;;;;;;;4.75;2.38;;;;;;;;;;5062442;28;20083;-79
2020/12/05 12:39:55;;;;;;;4.63;2.60;;;;;;;;;;5059369;28;20045;-80
2020/12/05 12:42:25;;;;;;;7.30;2.42;;;;;;;;;;5059152;28;20067;-80
2020/12/05 12:44:51;;;;;;;;;;;;;;;;;;5056381;28;20402;-80
2020/12/05 12:49:59;;;;;;;4.03;1.88;;;;;;;;;;5060973;28;20081;-81
2020/12/05 12:52:25;;;;;;;6.63;2.25;;;;;;;;;;5063448;28;20044;-82
2020/12/05 12:54:51;;;;;;;2.65;1.70;;;;;;;;;;5062869;28;20406;-81
2020/12/05 12:57:18;;;;;;;3.53;1.92;;;;;;;;;;5050218;28;20075;-78
2020/12/05 12:59:44;;;;;;;3.00;1.75;;;;;;;;;;5060584;28;20062;-79
2020/12/05 13:02:10;;;;;;;3.05;1.58;;;;;;;;;;5060115;28;20056;-78
2020/12/05 13:04:36;;;;;;;3.45;2.20;;;;;;;;;;5059955;28;20064;-78
2020/12/05 13:07:03;;;;;;;4.15;1.60;;;;;;;;;;5055024;28;20045;-78
2020/12/05 13:09:29;;;;;;;2.50;1.48;;;;;;;;;;5050629;28;20063;-78
2020/12/05 13:11:55;;;;;;;3.45;1.80;;;;;;;;;;5058486;28;20052;-78
2020/12/05 13:14:21;;;;;;;3.63;1.67;;;;;;;;;;5056045;28;20522;-79
2020/12/05 13:16:48;;;;;;;4.10;2.75;;;;;;;;;;5052945;28;20135;-79
2020/12/05 13:19:14;;;;;;;4.75;1.80;;;;;;;;;;5059708;28;20053;-79
2020/12/05 13:21:40;;;;;;;4.32;1.95;;;;;;;;;;5056797;28;20049;-80
2020/12/05 13:24:06;;;;;;;4.32;1.88;;;;;;;;;;5063725;28;20053;-80
2020/12/05 13:26:32;;;;;;;3.53;2.08;;;;;;;;;;5060912;28;20407;-80
2020/12/05 13:28:59;;;;;;;4.68;2.05;;;;;;;;;;5055940;28;20049;-79
2020/12/05 13:31:29;;;;;;;3.47;1.80;;;;;;;;;;5058391;28;20056;-79
2020/12/05 13:33:55;;;;;;;3.60;1.70;;;;;;;;;;5058424;28;20044;-79
2020/12/05 13:36:22;;;;;;;4.53;1.85;;;;;;;;;;5055508;28;20045;-80
2020/12/05 13:38:48;;;;;;;2.50;1.65;;;;;;;;;;5055666;28;20045;-80
2020/12/05 13:41:14;;;;;;;4.85;1.80;;;;;;;;;;5055979;28;20052;-77
2020/12/05 13:43:41;;;;;;;4.05;1.77;;;;;;;;;;5052929;28;20052;-77
2020/12/05 13:46:08;;;;;;;3.53;1.63;;;;;;;;;;5058172;28;20052;-78
2020/12/05 13:48:34;;;;;;;3.60;1.77;;;;;;;;;;5055856;28;20055;-79
2020/12/05 13:51:00;;;;;;;2.65;1.60;;;;;;;;;;5052000;28;20048;-77
2020/12/05 13:53:26;;;;;;;5.20;2.03;;;;;;;;;;5053633;28;21659;-77
2020/12/05 13:55:52;;;;;;;5.43;2.58;;;;;;;;;;5050264;28;20132;-77
2020/12/05 13:58:18;;;;;;;2.55;1.50;;;;;;;;;;5052169;28;21678;-78
2020/12/05 14:00:45;;;;;;;5.13;1.83;;;;;;;;;;5053263;28;20048;-77
2020/12/05 14:03:11;;;;;;;3.03;2.05;;;;;;;;;;5057910;28;20052;-77
2020/12/05 14:05:37;;;;;;;4.57;2.25;;;;;;;;;;5053046;28;20048;-77
2020/12/05 14:08:03;;;;;;;2.92;1.42;;;;;;;;;;5059708;28;20049;-76
2020/12/05 14:10:29;;;;;;;3.10;2.08;;;;;;;;;;5061314;28;20056;-77
2020/12/05 14:12:56;;;;;;;3.97;2.00;;;;;;;;;;5055836;28;20513;-81
2020/12/05 14:15:22;;;;;;;3.65;1.63;;;;;;;;;;5056466;28;20052;-83
2020/12/05 14:17:49;;;;;;;5.45;2.83;;;;;;;;;;5057910;28;20041;-83
2020/12/05 14:20:15;;;;;;;4.10;2.00;;;;;;;;;;5056678;28;20044;-80
2020/12/05 14:22:41;;;;;;;5.47;2.20;;;;;;;;;;5058766;28;20045;-82
2020/12/05 14:25:08;;;;;;;4.72;2.72;;;;;;;;;;5055925;28;20052;-81
2020/12/05 14:27:34;;;;;;;3.95;2.40;;;;;;;;;;5060207;28;20071;-80
2020/12/05 14:30:03;;;;;;;4.65;1.83;;;;;;;;;;5058707;28;20671;-79
2020/12/05 14:32:29;;;;;;;6.07;1.85;;;;;;;;;;5057422;28;20044;-86
2020/12/05 14:34:55;;;;;;;9.63;2.13;;;;;;;;;;5062359;28;20048;-81
2020/12/05 14:37:21;;;;;;;4.03;1.90;;;;;;;;;;5057865;28;20067;-80
2020/12/05 14:39:47;;;;;;;4.75;1.83;;;;;;;;;;5055201;28;20048;-83
2020/12/05 14:42:13;;;;;;;6.72;2.42;;;;;;;;;;5053328;28;20045;-86
2020/12/05 14:44:40;;;;;;;5.15;2.15;;;;;;;;;;5059263;28;20048;-78
2020/12/05 14:47:08;;;;;;;6.03;2.20;;;;;;;;;;5053333;28;20144;-85
2020/12/05 14:49:34;;;;;;;4.85;2.05;;;;;;;;;;5062327;28;20131;-87
2020/12/05 14:52:00;;;;;;;5.60;2.60;;;;;;;;;;5058886;28;20045;-81